Time;durP1;ratioP1;P1;durP2;ratioP2;P2;SDS_P1;SDS_P2;PMS_P1;PMS_P2;Temp;Humidity;BMP_temperature;BMP_pressure;BME280_temperature;BME280_humidity;BME280_pressure;Samples;Min_cycle;Max_cycle;Signal;HPM_P1;HPM_P2
2021/11/21 00:00:56;;;;;;;26.25;17.42;;;9.90;90.10;;;;;;5094230;28;20016;-78
2021/11/21 00:03:22;;;;;;;25.15;17.50;;;9.90;90.10;;;;;;5095747;28;20077;-79
2021/11/21 00:05:48;;;;;;;24.00;17.25;;;10.00;90.10;;;;;;5094197;28;20023;-79
2021/11/21 00:08:14;;;;;;;23.83;17.17;;;10.00;90.10;;;;;;5094137;28;20031;-79
2021/11/21 00:10:40;;;;;;;24.73;17.30;;;10.00;90.10;;;;;;5095407;28;20048;-78
2021/11/21 00:13:06;;;;;;;23.27;16.77;;;10.00;90.00;;;;;;5095216;28;20024;-78
2021/11/21 00:15:33;;;;;;;23.98;17.00;;;10.00;90.10;;;;;;5094576;28;20016;-79
2021/11/21 00:17:59;;;;;;;24.08;17.60;;;10.00;90.00;;;;;;5095283;28;20016;-79
2021/11/21 00:20:25;;;;;;;23.50;16.33;;;10.00;90.10;;;;;;5093925;28;20016;-79
2021/11/21 00:22:51;;;;;;;23.90;16.63;;;10.00;90.00;;;;;;5093693;28;20047;-79
2021/11/21 00:25:17;;;;;;;23.25;16.17;;;10.00;90.00;;;;;;5093817;28;20016;-78
2021/11/21 00:27:42;;;;;;;23.40;16.50;;;10.00;90.00;;;;;;5093637;28;20046;-79
2021/11/21 00:30:08;;;;;;;23.50;16.02;;;10.00;90.00;;;;;;5093692;28;20103;-78
2021/11/21 00:32:34;;;;;;;22.85;16.33;;;10.00;90.00;;;;;;5093491;28;20016;-79
2021/11/21 00:35:00;;;;;;;22.25;16.17;;;9.90;90.00;;;;;;5093586;28;20084;-79
2021/11/21 00:37:28;;;;;;;23.85;16.05;;;9.90;90.00;;;;;;5094949;28;20016;-78
2021/11/21 00:39:54;;;;;;;21.15;16.10;;;9.90;90.00;;;;;;5094840;28;20070;-78
2021/11/21 00:42:20;;;;;;;20.60;14.75;;;9.90;90.10;;;;;;5093466;28;20115;-79
2021/11/21 00:44:46;;;;;;;23.60;16.15;;;9.80;90.10;;;;;;5093254;28;20119;-79
2021/11/21 00:47:11;;;;;;;21.52;14.85;;;9.80;90.10;;;;;;5093327;28;20016;-79
2021/11/21 00:49:38;;;;;;;19.58;14.13;;;9.80;90.10;;;;;;5093239;28;20020;-78
2021/11/21 00:52:05;;;;;;;21.50;15.25;;;9.80;90.20;;;;;;5093282;28;20024;-78
2021/11/21 00:54:47;;;;;;;19.95;14.35;;;9.90;90.10;;;;;;5092864;28;20043;-78
2021/11/21 00:57:14;;;;;;;19.63;13.55;;;9.90;90.20;;;;;;5093123;28;20024;-78
2021/11/21 00:59:40;;;;;;;20.00;14.70;;;9.90;90.20;;;;;;5094409;28;20028;-79
2021/11/21 01:02:09;;;;;;;19.85;14.18;;;9.90;90.10;;;;;;5093000;28;20016;-78
2021/11/21 01:04:36;;;;;;;17.98;13.73;;;10.00;90.10;;;;;;5092980;28;20107;-79
2021/11/21 01:07:02;;;;;;;19.83;14.20;;;9.90;90.10;;;;;;5092865;28;20488;-78
2021/11/21 01:09:28;;;;;;;21.70;15.48;;;10.00;90.10;;;;;;5092686;28;20016;-79
2021/11/21 01:11:56;;;;;;;21.92;15.10;;;9.90;90.00;;;;;;5092809;28;20016;-78
2021/11/21 01:14:23;;;;;;;20.80;14.50;;;9.90;90.10;;;;;;5092752;28;20051;-79
2021/11/21 01:16:48;;;;;;;21.30;15.55;;;9.90;90.10;;;;;;5094038;28;20492;-79
2021/11/21 01:19:14;;;;;;;23.83;16.70;;;10.00;90.10;;;;;;5092707;28;20020;-79
2021/11/21 01:21:41;;;;;;;22.25;15.50;;;9.90;90.00;;;;;;5092686;28;20034;-78
2021/11/21 01:24:06;;;;;;;21.42;15.57;;;9.90;90.10;;;;;;5092697;28;20070;-78
2021/11/21 01:26:32;;;;;;;22.80;15.85;;;9.90;90.10;;;;;;5092472;28;20480;-78
2021/11/21 01:28:58;;;;;;;22.88;16.25;;;10.00;90.10;;;;;;5093793;28;20472;-78
2021/11/21 01:31:25;;;;;;;22.80;15.75;;;10.00;90.10;;;;;;5093820;28;20020;-78
2021/11/21 01:33:51;;;;;;;22.52;15.40;;;9.90;90.00;;;;;;5092392;28;20012;-78
2021/11/21 01:36:17;;;;;;;24.75;17.13;;;9.90;90.00;;;;;;5092734;28;20039;-78
2021/11/21 01:38:43;;;;;;;23.65;16.73;;;9.90;90.00;;;;;;5092346;28;20103;-78
2021/11/21 01:41:10;;;;;;;21.92;15.75;;;9.90;90.10;;;;;;5093564;28;20093;-78
2021/11/21 01:43:36;;;;;;;19.92;14.80;;;9.90;90.10;;;;;;5092262;28;20020;-79
2021/11/21 01:46:02;;;;;;;22.52;15.75;;;9.90;90.10;;;;;;5092144;28;20129;-78
2021/11/21 01:48:28;;;;;;;20.60;15.40;;;9.90;90.10;;;;;;5092526;28;20020;-78
2021/11/21 01:50:55;;;;;;;22.42;15.57;;;9.90;90.10;;;;;;5093598;28;20387;-78
2021/11/21 01:53:21;;;;;;;21.80;15.15;;;9.90;90.10;;;;;;5092067;28;20043;-78
2021/11/21 01:55:48;;;;;;;22.77;15.63;;;9.90;90.10;;;;;;5091877;28;20457;-78
2021/11/21 01:58:13;;;;;;;22.67;15.85;;;9.90;90.10;;;;;;5092125;28;20028;-78
2021/11/21 02:00:42;;;;;;;20.42;14.93;;;9.90;90.10;;;;;;5092022;28;20019;-78
2021/11/21 02:03:08;;;;;;;21.35;14.55;;;9.90;90.10;;;;;;5093168;28;20028;-78
2021/11/21 02:05:34;;;;;;;22.00;15.95;;;9.90;90.10;;;;;;5093244;28;20024;-79
2021/11/21 02:08:00;;;;;;;21.98;15.25;;;9.90;90.10;;;;;;5091868;28;20034;-78
2021/11/21 02:10:26;;;;;;;20.80;14.93;;;9.90;90.10;;;;;;5093212;28;20032;-79
2021/11/21 02:12:53;;;;;;;21.65;15.82;;;9.90;90.10;;;;;;5091709;28;20028;-78
2021/11/21 02:15:23;;;;;;;24.30;17.23;;;9.90;90.10;;;;;;5091865;28;20062;-79
2021/11/21 02:17:49;;;;;;;24.80;16.77;;;9.90;90.10;;;;;;5093015;28;20028;-78
2021/11/21 02:20:20;;;;;;;23.70;17.10;;;9.90;90.10;;;;;;5091862;28;20024;-78
2021/11/21 02:22:46;;;;;;;23.95;16.15;;;9.90;90.10;;;;;;5091842;28;20067;-78
2021/11/21 02:25:11;;;;;;;26.25;17.83;;;9.90;90.10;;;;;;5092951;28;20063;-78
2021/11/21 02:27:37;;;;;;;23.77;16.70;;;9.90;90.10;;;;;;5091638;28;20031;-78
2021/11/21 02:30:06;;;;;;;24.60;17.35;;;9.90;90.10;;;;;;5091817;28;20024;-78
2021/11/21 02:32:32;;;;;;;22.73;16.27;;;9.90;90.10;;;;;;5093067;28;20039;-78
2021/11/21 02:34:58;;;;;;;27.80;18.40;;;9.90;90.10;;;;;;5091434;28;20036;-78
2021/11/21 02:37:23;;;;;;;27.35;17.83;;;9.90;90.10;;;;;;5092666;28;20118;-78
2021/11/21 02:39:50;;;;;;;28.80;19.17;;;9.80;90.10;;;;;;5096899;28;20550;-78
2021/11/21 02:42:31;;;;;;;30.50;19.70;;;9.80;90.10;;;;;;5095731;28;20020;-78
2021/11/21 02:44:57;;;;;;;30.17;19.38;;;9.80;90.10;;;;;;5096766;28;20040;-78
2021/11/21 02:47:23;;;;;;;26.63;18.90;;;9.80;90.20;;;;;;5095641;28;20016;-78
2021/11/21 02:49:50;;;;;;;28.90;18.83;;;9.80;90.20;;;;;;5095513;28;20089;-77
2021/11/21 02:52:16;;;;;;;29.85;18.77;;;9.80;90.20;;;;;;5095488;28;20039;-77
2021/11/21 02:54:53;;;;;;;26.55;17.63;;;9.80;90.20;;;;;;5095260;28;20044;-78
2021/11/21 02:57:20;;;;;;;30.55;19.45;;;9.80;90.20;;;;;;5095355;28;20137;-79
2021/11/21 02:59:46;;;;;;;27.52;18.33;;;9.80;90.20;;;;;;5096666;28;20020;-79
2021/11/21 03:02:12;;;;;;;31.67;20.73;;;9.80;90.20;;;;;;5096544;28;20511;-79
2021/11/21 03:04:37;;;;;;;31.25;19.70;;;9.80;90.20;;;;;;5095253;28;20480;-79
2021/11/21 03:07:03;;;;;;;29.88;19.45;;;9.80;90.30;;;;;;5095289;28;20028;-79
2021/11/21 03:09:29;;;;;;;31.15;20.10;;;9.80;90.30;;;;;;5095219;28;20495;-79
2021/11/21 03:11:55;;;;;;;30.00;18.38;;;9.80;90.30;;;;;;5096370;28;20035;-78
2021/11/21 03:14:23;;;;;;;30.25;20.15;;;9.80;90.30;;;;;;5096299;28;20066;-79
2021/11/21 03:16:49;;;;;;;29.92;18.67;;;9.80;90.30;;;;;;5095143;28;20020;-78
2021/11/21 03:19:15;;;;;;;28.80;18.00;;;9.70;90.30;;;;;;5094963;28;20024;-78
2021/11/21 03:21:42;;;;;;;31.33;19.08;;;9.80;90.30;;;;;;5094987;28;20032;-78
2021/11/21 03:24:08;;;;;;;30.20;18.48;;;9.80;90.30;;;;;;5096237;28;20032;-79
2021/11/21 03:26:34;;;;;;;28.73;18.33;;;9.80;90.30;;;;;;5094884;28;20401;-78
2021/11/21 03:29:00;;;;;;;31.58;17.73;;;9.80;90.30;;;;;;5094822;28;20036;-78
2021/11/21 03:31:26;;;;;;;27.13;18.00;;;9.80;90.30;;;;;;5094946;28;20424;-79
2021/11/21 03:33:52;;;;;;;31.08;19.13;;;9.80;90.30;;;;;;5095888;28;20391;-78
2021/11/21 03:36:18;;;;;;;27.83;17.42;;;9.80;90.30;;;;;;5094826;28;20051;-79
2021/11/21 03:38:44;;;;;;;29.00;18.48;;;9.80;90.30;;;;;;5094776;28;20074;-78
2021/11/21 03:41:10;;;;;;;28.52;17.75;;;9.80;90.30;;;;;;5094898;28;20078;-79
2021/11/21 03:43:35;;;;;;;30.75;19.40;;;9.80;90.30;;;;;;5094579;28;20062;-78
2021/11/21 03:46:01;;;;;;;28.52;18.00;;;9.80;90.30;;;;;;5095756;28;20065;-78
2021/11/21 03:48:27;;;;;;;29.17;18.05;;;9.80;90.30;;;;;;5093819;28;20032;-79
2021/11/21 03:50:53;;;;;;;31.83;17.48;;;9.80;90.30;;;;;;5094045;28;20434;-78
2021/11/21 03:53:19;;;;;;;30.88;18.52;;;9.80;90.30;;;;;;5094305;28;20376;-78
2021/11/21 03:55:45;;;;;;;29.35;18.55;;;9.90;90.30;;;;;;5094222;28;20101;-79
2021/11/21 03:58:11;;;;;;;28.02;17.65;;;9.90;90.30;;;;;;5094491;28;20024;-79
2021/11/21 04:00:37;;;;;;;29.92;17.13;;;9.90;90.30;;;;;;5095651;28;20077;-79
2021/11/21 04:03:05;;;;;;;28.58;16.73;;;9.90;90.30;;;;;;5094218;28;20028;-78
2021/11/21 04:05:31;;;;;;;29.45;17.50;;;9.90;90.20;;;;;;5095495;28;20020;-78
2021/11/21 04:07:56;;;;;;;29.20;17.95;;;9.90;90.20;;;;;;5095464;28;20024;-79
2021/11/21 04:10:22;;;;;;;31.58;18.55;;;9.80;90.30;;;;;;5094135;28;20043;-79
2021/11/21 04:12:48;;;;;;;28.80;18.15;;;9.80;90.30;;;;;;5094142;28;20056;-79
2021/11/21 04:15:14;;;;;;;30.13;17.40;;;9.70;90.40;;;;;;5095604;28;20480;-79
2021/11/21 04:17:41;;;;;;;28.80;17.20;;;9.70;90.40;;;;;;5094014;28;20035;-78
2021/11/21 04:20:08;;;;;;;32.13;18.25;;;9.80;90.50;;;;;;5095205;28;20031;-78
2021/11/21 04:22:34;;;;;;;27.50;17.67;;;9.70;90.50;;;;;;5094235;28;20019;-78
2021/11/21 04:25:00;;;;;;;32.97;17.85;;;9.70;90.50;;;;;;5093810;28;20131;-80
2021/11/21 04:27:27;;;;;;;29.75;17.63;;;9.70;90.60;;;;;;5093965;28;20016;-79
2021/11/21 04:29:54;;;;;;;24.45;15.65;;;9.70;90.60;;;;;;5093776;28;20077;-79
2021/11/21 04:32:20;;;;;;;26.77;16.45;;;9.80;90.60;;;;;;5093824;28;20051;-79
2021/11/21 04:34:46;;;;;;;27.30;16.52;;;9.70;90.60;;;;;;5093820;28;20408;-80
2021/11/21 04:37:11;;;;;;;27.95;17.02;;;9.80;90.60;;;;;;5095030;28;20027;-78
2021/11/21 04:39:37;;;;;;;25.52;16.10;;;9.80;90.70;;;;;;5093740;28;20451;-78
2021/11/21 04:42:03;;;;;;;28.42;16.63;;;9.70;90.60;;;;;;5093690;28;20016;-79
2021/11/21 04:44:28;;;;;;;25.17;15.65;;;9.70;90.70;;;;;;5090621;28;20028;-79
2021/11/21 04:46:54;;;;;;;25.33;16.00;;;9.70;91.00;;;;;;5093742;28;20031;-79
2021/11/21 04:49:19;;;;;;;23.30;15.13;;;9.70;90.70;;;;;;5094872;28;20024;-79
2021/11/21 04:51:45;;;;;;;24.70;15.40;;;9.70;90.80;;;;;;5094940;28;20031;-78
2021/11/21 04:54:17;;;;;;;24.25;15.40;;;9.70;90.80;;;;;;5093257;28;20017;-79
2021/11/21 04:56:45;;;;;;;20.60;13.35;;;9.60;90.80;;;;;;5094630;28;20020;-80
2021/11/21 04:59:12;;;;;;;20.20;13.15;;;9.60;90.90;;;;;;5093532;28;20016;-80
2021/11/21 05:01:38;;;;;;;20.23;12.90;;;9.70;90.90;;;;;;5093273;28;20016;-79
2021/11/21 05:04:03;;;;;;;18.77;12.15;;;9.70;91.20;;;;;;5093798;28;20028;-79
2021/11/21 05:06:29;;;;;;;19.70;11.93;;;9.70;90.90;;;;;;5093266;28;20020;-79
2021/11/21 05:08:55;;;;;;;17.52;11.57;;;9.70;90.90;;;;;;5093202;28;20035;-79
2021/11/21 05:11:20;;;;;;;18.02;11.85;;;9.70;90.90;;;;;;5093098;28;20020;-79
2021/11/21 05:13:46;;;;;;;17.70;10.90;;;9.80;90.90;;;;;;5093211;28;20027;-79
2021/11/21 05:16:12;;;;;;;16.00;10.00;;;9.80;90.90;;;;;;5094372;28;20360;-79
2021/11/21 05:18:37;;;;;;;13.90;9.00;;;9.80;90.90;;;;;;5092876;28;20025;-79
2021/11/21 05:21:03;;;;;;;12.82;8.85;;;9.80;90.90;;;;;;5092846;28;20056;-79
2021/11/21 05:23:28;;;;;;;13.40;8.88;;;9.80;90.80;;;;;;5093010;28;20123;-78
2021/11/21 05:25:54;;;;;;;13.23;8.60;;;9.90;90.90;;;;;;5092712;28;20028;-79
2021/11/21 05:28:20;;;;;;;13.05;8.25;;;9.80;90.80;;;;;;5092727;28;20024;-79
2021/11/21 05:30:48;;;;;;;12.88;8.50;;;9.80;90.80;;;;;;5093919;28;20039;-79
2021/11/21 05:33:15;;;;;;;12.52;8.05;;;9.90;90.80;;;;;;5093840;28;20024;-79
2021/11/21 05:35:41;;;;;;;10.55;7.38;;;9.90;90.80;;;;;;5092679;28;20102;-79
2021/11/21 05:38:06;;;;;;;11.02;7.22;;;9.90;90.80;;;;;;5092447;28;20024;-80
2021/11/21 05:40:32;;;;;;;10.93;7.65;;;9.90;90.80;;;;;;5092493;28;20051;-79
2021/11/21 05:42:58;;;;;;;10.07;7.63;;;9.90;90.80;;;;;;5093919;28;20107;-79
2021/11/21 05:45:24;;;;;;;10.40;7.22;;;9.90;90.80;;;;;;5092403;28;20053;-79
2021/11/21 05:47:50;;;;;;;12.20;8.27;;;10.00;90.80;;;;;;5092337;28;20474;-79
2021/11/21 05:50:16;;;;;;;9.30;6.50;;;10.00;90.80;;;;;;5092324;28;20379;-79
2021/11/21 05:52:43;;;;;;;10.98;7.10;;;10.00;90.80;;;;;;5092287;28;20012;-80
2021/11/21 05:55:10;;;;;;;12.35;7.10;;;10.00;90.80;;;;;;5091972;28;20098;-80
2021/11/21 05:57:35;;;;;;;9.75;6.88;;;10.00;91.00;;;;;;5093615;28;20069;-79
2021/11/21 06:00:07;;;;;;;10.90;7.10;;;10.00;90.70;;;;;;5093402;28;20028;-80
2021/11/21 06:02:33;;;;;;;8.70;6.38;;;10.00;90.70;;;;;;5092080;28;20016;-79
2021/11/21 06:04:58;;;;;;;9.35;6.65;;;10.10;90.70;;;;;;5092001;28;20024;-79
2021/11/21 06:07:24;;;;;;;9.10;6.85;;;10.00;90.70;;;;;;5092105;28;20016;-79
2021/11/21 06:09:49;;;;;;;11.00;6.53;;;10.10;90.70;;;;;;5093264;28;20418;-79
2021/11/21 06:12:15;;;;;;;9.30;6.28;;;10.00;90.70;;;;;;5091299;28;20024;-79
2021/11/21 06:14:41;;;;;;;12.05;6.30;;;10.10;90.70;;;;;;5092034;28;20337;-79
2021/11/21 06:17:08;;;;;;;8.88;6.57;;;10.10;90.70;;;;;;5091832;28;20024;-79
2021/11/21 06:19:35;;;;;;;8.45;6.03;;;10.10;90.70;;;;;;5091880;28;20037;-79
2021/11/21 06:22:01;;;;;;;7.95;5.70;;;10.20;90.70;;;;;;5093183;28;20402;-79
2021/11/21 06:24:29;;;;;;;9.32;5.93;;;10.20;90.70;;;;;;5091910;28;20066;-79
2021/11/21 06:26:55;;;;;;;7.35;5.53;;;10.20;90.70;;;;;;5093006;28;20020;-79
2021/11/21 06:29:22;;;;;;;7.05;4.93;;;10.20;90.70;;;;;;5092022;28;20101;-79
2021/11/21 06:31:47;;;;;;;7.30;5.30;;;10.20;90.70;;;;;;5091697;28;20517;-79
2021/11/21 06:34:15;;;;;;;7.22;5.25;;;10.20;90.70;;;;;;5091680;28;20028;-78
2021/11/21 06:36:40;;;;;;;6.85;5.20;;;10.20;90.90;;;;;;5091817;28;20495;-79
2021/11/21 06:39:06;;;;;;;6.53;4.80;;;10.20;90.70;;;;;;5091626;28;20028;-79
2021/11/21 06:41:31;;;;;;;6.93;5.00;;;10.20;90.70;;;;;;5092864;28;20031;-78
2021/11/21 06:43:57;;;;;;;6.72;4.80;;;10.20;90.60;;;;;;5091692;28;20125;-79
2021/11/21 06:46:22;;;;;;;6.57;4.40;;;10.20;90.70;;;;;;5092871;28;20077;-79
2021/11/21 06:52:10;;;;;;;7.88;4.35;;;10.20;90.60;;;;;;5092991;28;20495;-78
2021/11/21 06:54:36;;;;;;;7.22;3.97;;;10.10;90.60;;;;;;5091257;28;20044;-80
2021/11/21 06:57:02;;;;;;;6.20;4.30;;;10.10;90.60;;;;;;5092974;28;20034;-79
2021/11/21 06:59:28;;;;;;;6.22;3.90;;;10.10;90.60;;;;;;5091569;28;20027;-79
2021/11/21 07:01:53;;;;;;;6.00;4.15;;;10.20;90.60;;;;;;5094243;28;20035;-79
2021/11/21 07:04:19;;;;;;;7.03;4.18;;;10.20;90.60;;;;;;5091526;28;20024;-79
2021/11/21 07:06:46;;;;;;;6.15;4.50;;;10.20;90.60;;;;;;5091477;28;20020;-79
2021/11/21 07:09:15;;;;;;;5.95;4.50;;;10.20;90.60;;;;;;5091392;28;20013;-80
2021/11/21 07:11:42;;;;;;;5.68;4.05;;;10.10;90.60;;;;;;5091760;28;20031;-80
2021/11/21 07:14:11;;;;;;;6.68;4.07;;;10.20;90.70;;;;;;5091271;28;20521;-79
2021/11/21 07:16:42;;;;;;;6.95;4.10;;;10.20;90.60;;;;;;5091472;28;20023;-80
2021/11/21 07:19:09;;;;;;;6.60;3.92;;;10.20;90.60;;;;;;5091367;28;20020;-79
2021/11/21 07:21:35;;;;;;;5.50;3.92;;;10.10;90.60;;;;;;5091210;28;20430;-79
2021/11/21 07:24:00;;;;;;;5.93;4.05;;;10.10;90.60;;;;;;5093211;28;20027;-79
2021/11/21 07:26:26;;;;;;;5.00;4.00;;;10.20;90.60;;;;;;5096240;28;20161;-79
2021/11/21 07:28:52;;;;;;;5.22;3.70;;;10.20;90.60;;;;;;5096178;28;20020;-79
2021/11/21 07:31:18;;;;;;;6.30;3.65;;;10.10;90.90;;;;;;5094879;28;20545;-80
2021/11/21 07:33:44;;;;;;;6.68;3.85;;;10.10;90.60;;;;;;5096331;28;20021;-79
2021/11/21 07:36:09;;;;;;;5.65;4.03;;;10.10;90.60;;;;;;5094821;28;20031;-79
2021/11/21 07:38:35;;;;;;;4.55;3.40;;;10.10;90.60;;;;;;5096129;28;20020;-79
2021/11/21 07:41:02;;;;;;;5.65;3.10;;;10.10;90.60;;;;;;5094969;28;20020;-80
2021/11/21 07:43:30;;;;;;;3.97;2.75;;;10.20;90.60;;;;;;5094814;28;20069;-79
2021/11/21 07:45:58;;;;;;;5.75;2.80;;;10.10;90.60;;;;;;5094745;28;20046;-79
2021/11/21 07:48:24;;;;;;;6.53;3.33;;;10.10;90.60;;;;;;5094660;28;20023;-79
2021/11/21 07:50:50;;;;;;;7.05;3.08;;;10.10;90.60;;;;;;5094536;28;20031;-79
2021/11/21 07:53:15;;;;;;;7.10;2.80;;;10.10;90.60;;;;;;5094379;28;20024;-80
2021/11/21 07:55:41;;;;;;;4.05;2.40;;;10.10;90.60;;;;;;5094418;28;20081;-78
2021/11/21 07:58:07;;;;;;;6.78;2.58;;;10.10;90.60;;;;;;5095666;28;20020;-79
2021/11/21 08:00:33;;;;;;;3.83;2.05;;;10.10;90.60;;;;;;5094428;28;20024;-79
2021/11/21 08:02:59;;;;;;;4.70;2.17;;;10.10;90.50;;;;;;5095502;28;20024;-79
2021/11/21 08:05:25;;;;;;;4.05;1.92;;;10.10;90.50;;;;;;5094021;28;20024;-79
2021/11/21 08:07:50;;;;;;;4.00;1.83;;;10.10;90.50;;;;;;5094091;28;20102;-79
2021/11/21 08:10:17;;;;;;;4.95;1.77;;;10.20;90.50;;;;;;5091181;28;20472;-79
2021/11/21 08:12:43;;;;;;;6.18;1.80;;;10.20;90.50;;;;;;5095201;28;20031;-79
2021/11/21 08:15:09;;;;;;;6.28;1.88;;;10.20;90.50;;;;;;5093971;28;20464;-80
2021/11/21 08:17:35;;;;;;;6.32;1.75;;;10.20;90.40;;;;;;5095183;28;20023;-79
2021/11/21 08:20:03;;;;;;;4.28;1.50;;;10.20;90.70;;;;;;5094045;28;20113;-79
2021/11/21 08:22:28;;;;;;;7.57;1.58;;;10.20;90.40;;;;;;5093706;28;20035;-80
2021/11/21 08:24:54;;;;;;;5.55;1.70;;;10.20;90.40;;;;;;5095124;28;20024;-80
2021/11/21 08:27:19;;;;;;;7.13;1.63;;;10.20;90.40;;;;;;5093692;28;20052;-80
2021/11/21 08:29:45;;;;;;;7.15;1.50;;;10.20;90.40;;;;;;5093813;28;20024;-80
2021/11/21 08:32:11;;;;;;;3.35;1.40;;;10.20;90.30;;;;;;5093725;28;20043;-79
2021/11/21 08:37:58;;;;;;;3.47;1.40;;;10.20;90.30;;;;;;5095358;28;20023;-79
2021/11/21 08:40:24;;;;;;;4.82;1.35;;;10.20;90.30;;;;;;5093630;28;20024;-80
2021/11/21 08:42:50;;;;;;;4.40;1.38;;;10.20;90.30;;;;;;5093490;28;20380;-79
2021/11/21 08:45:16;;;;;;;3.55;1.30;;;10.10;90.20;;;;;;5094674;28;20028;-79
2021/11/21 08:47:41;;;;;;;4.80;1.10;;;10.10;90.20;;;;;;5093376;28;20033;-79
2021/11/21 08:50:09;;;;;;;4.75;1.15;;;10.10;90.10;;;;;;5093340;28;20123;-79
2021/11/21 08:52:35;;;;;;;6.22;1.73;;;10.10;90.10;;;;;;5093126;28;20031;-79
2021/11/21 08:55:02;;;;;;;4.82;1.17;;;10.10;90.10;;;;;;5092932;28;20056;-79
2021/11/21 08:57:28;;;;;;;4.95;1.38;;;10.10;90.10;;;;;;5093323;28;20020;-79
2021/11/21 08:59:54;;;;;;;3.05;1.20;;;10.10;90.10;;;;;;5093115;28;20089;-79
2021/11/21 09:02:19;;;;;;;3.33;0.95;;;10.10;90.10;;;;;;5092995;28;20050;-79
2021/11/21 09:04:45;;;;;;;8.25;1.30;;;10.20;90.10;;;;;;5093174;28;20118;-79
2021/11/21 09:07:10;;;;;;;6.50;1.20;;;10.20;90.00;;;;;;5093067;28;20111;-78
2021/11/21 09:09:36;;;;;;;5.93;1.45;;;10.20;90.20;;;;;;5094278;28;20039;-80
2021/11/21 09:12:02;;;;;;;5.50;1.38;;;10.20;90.00;;;;;;5093038;28;20027;-79
2021/11/21 09:14:28;;;;;;;8.93;1.55;;;10.20;90.00;;;;;;5092953;28;20069;-78
2021/11/21 09:16:54;;;;;;;4.85;1.40;;;10.20;90.00;;;;;;5094218;28;20093;-79
2021/11/21 09:19:20;;;;;;;5.95;1.10;;;10.20;90.00;;;;;;5092680;28;20012;-79
2021/11/21 09:21:46;;;;;;;3.22;1.00;;;10.20;89.90;;;;;;5093970;28;20028;-78
2021/11/21 09:24:12;;;;;;;5.32;1.38;;;10.20;89.80;;;;;;5092790;28;20027;-78
2021/11/21 09:26:38;;;;;;;4.28;1.65;;;10.20;89.80;;;;;;5092661;28;20510;-78
2021/11/21 09:29:04;;;;;;;4.32;1.20;;;10.20;89.70;;;;;;5093904;28;20028;-79
2021/11/21 09:31:30;;;;;;;4.22;1.17;;;10.20;89.70;;;;;;5092509;28;20028;-78
2021/11/21 09:33:56;;;;;;;6.88;1.63;;;10.20;89.60;;;;;;5093684;28;20165;-79
2021/11/21 09:36:21;;;;;;;4.82;1.13;;;10.20;89.60;;;;;;5092643;28;20107;-79
2021/11/21 09:38:48;;;;;;;5.85;1.10;;;10.10;89.50;;;;;;5092612;28;20031;-78
2021/11/21 09:41:14;;;;;;;6.93;1.30;;;10.20;89.60;;;;;;5093823;28;20024;-79
2021/11/21 09:43:43;;;;;;;6.70;1.20;;;10.20;89.50;;;;;;5094006;28;20024;-79
2021/11/21 09:46:10;;;;;;;8.05;1.35;;;10.20;89.40;;;;;;5093471;28;20136;-79
2021/11/21 09:48:36;;;;;;;3.55;1.23;;;10.10;89.30;;;;;;5092028;28;20447;-78
2021/11/21 09:51:03;;;;;;;4.68;1.48;;;10.10;89.30;;;;;;5093987;28;20024;-78
2021/11/21 09:53:29;;;;;;;7.65;1.40;;;10.00;89.30;;;;;;5093875;28;20040;-79
2021/11/21 09:55:55;;;;;;;9.50;2.00;;;10.00;89.30;;;;;;5092086;28;20043;-78
2021/11/21 09:58:22;;;;;;;5.63;1.65;;;9.90;89.30;;;;;;5092661;28;20023;-78
2021/11/21 10:00:48;;;;;;;5.85;1.48;;;9.90;89.40;;;;;;5092526;28;20502;-78
2021/11/21 10:03:15;;;;;;;7.03;1.45;;;9.80;89.30;;;;;;5092288;28;20111;-78
2021/11/21 10:05:46;;;;;;;2.20;0.88;;;9.80;89.40;;;;;;5092884;28;20075;-79
2021/11/21 10:08:18;;;;;;;6.85;1.20;;;9.80;89.40;;;;;;5092206;28;20032;-79
2021/11/21 10:10:48;;;;;;;7.50;1.67;;;9.80;89.40;;;;;;5093819;28;20100;-79
2021/11/21 10:13:42;;;;;;;6.15;1.30;;;9.70;89.30;;;;;;5091944;28;20069;-79
2021/11/21 10:16:19;;;;;;;4.05;1.05;;;9.70;89.20;;;;;;5092099;28;20480;-79
2021/11/21 10:19:06;;;;;;;5.32;1.02;;;9.70;89.30;;;;;;5091940;28;20024;-80
2021/11/21 10:21:37;;;;;;;6.63;1.20;;;9.70;89.30;;;;;;5092073;28;20073;-79
2021/11/21 10:24:09;;;;;;;3.88;1.10;;;9.70;89.20;;;;;;5091900;28;20126;-79
2021/11/21 10:26:35;;;;;;;5.38;1.20;;;9.70;89.20;;;;;;5091861;28;20499;-79
2021/11/21 10:29:00;;;;;;;5.78;1.20;;;9.60;89.20;;;;;;5093058;28;20030;-79
2021/11/21 10:31:29;;;;;;;4.47;1.00;;;9.60;89.20;;;;;;5091749;28;20038;-79
2021/11/21 10:34:02;;;;;;;5.85;1.13;;;9.60;89.20;;;;;;5091485;28;20092;-79
2021/11/21 10:36:29;;;;;;;4.93;1.10;;;9.60;89.10;;;;;;5091700;28;20111;-78
2021/11/21 10:39:02;;;;;;;5.65;1.25;;;9.60;89.10;;;;;;5093058;28;20023;-78
2021/11/21 10:41:33;;;;;;;4.75;1.65;;;9.60;89.10;;;;;;5092970;28;20108;-78
2021/11/21 10:44:04;;;;;;;7.55;1.40;;;9.60;89.00;;;;;;5092916;28;20054;-78
2021/11/21 10:46:42;;;;;;;7.03;1.40;;;9.60;89.00;;;;;;5092951;28;20058;-78
2021/11/21 10:49:12;;;;;;;9.43;1.30;;;9.60;89.00;;;;;;5091824;28;20027;-78
2021/11/21 10:51:38;;;;;;;5.35;1.17;;;9.60;88.90;;;;;;5091619;28;20079;-78
2021/11/21 10:54:15;;;;;;;5.35;1.08;;;9.60;88.80;;;;;;5091263;28;20024;-78
2021/11/21 10:56:58;;;;;;;5.35;1.55;;;9.60;88.80;;;;;;5092900;28;20059;-78
2021/11/21 10:59:49;;;;;;;7.47;1.20;;;9.60;88.70;;;;;;5094094;28;20066;-78
2021/11/21 11:02:25;;;;;;;5.88;1.30;;;9.70;88.70;;;;;;5095194;28;20498;-78
2021/11/21 11:05:16;;;;;;;6.47;1.42;;;9.70;88.50;;;;;;5095404;28;20487;-79
2021/11/21 11:07:55;;;;;;;9.82;1.90;;;9.80;88.40;;;;;;5095514;28;20379;-78
2021/11/21 11:10:23;;;;;;;7.28;1.13;;;9.80;88.30;;;;;;5095344;28;20027;-79
2021/11/21 11:13:01;;;;;;;4.88;1.30;;;9.90;88.20;;;;;;5095357;28;20020;-78
2021/11/21 11:15:28;;;;;;;4.82;1.30;;;9.90;88.00;;;;;;5095263;28;20500;-78
2021/11/21 11:17:54;;;;;;;6.45;1.42;;;10.00;87.80;;;;;;5096629;28;20519;-79
2021/11/21 11:20:21;;;;;;;5.50;1.10;;;10.00;87.70;;;;;;5096464;28;20043;-78
2021/11/21 11:22:48;;;;;;;4.03;1.20;;;10.10;87.60;;;;;;5095182;28;20028;-78
2021/11/21 11:25:20;;;;;;;7.43;1.20;;;10.20;87.50;;;;;;5095078;28;20020;-78
2021/11/21 11:27:49;;;;;;;6.82;1.48;;;10.20;87.40;;;;;;5094931;28;20073;-78
2021/11/21 11:30:18;;;;;;;3.10;1.25;;;10.30;87.30;;;;;;5094905;28;20023;-79
2021/11/21 11:32:45;;;;;;;3.65;1.40;;;10.30;87.00;;;;;;5094874;28;20391;-79
2021/11/21 11:35:19;;;;;;;7.88;1.50;;;10.40;86.80;;;;;;5094749;28;20077;-79
2021/11/21 11:37:53;;;;;;;6.72;1.25;;;10.40;86.60;;;;;;5098693;28;20028;-78
2021/11/21 11:40:28;;;;;;;6.32;1.55;;;10.50;86.50;;;;;;5094655;28;20044;-78
2021/11/21 11:42:55;;;;;;;5.10;1.70;;;10.50;86.40;;;;;;5095916;28;20103;-77
2021/11/21 11:48:46;;;;;;;5.03;1.10;;;10.60;85.90;;;;;;5096123;28;20023;-78
2021/11/21 11:51:19;;;;;;;6.25;1.08;;;10.70;85.30;;;;;;5095698;28;20129;-78
2021/11/21 11:53:50;;;;;;;6.93;1.30;;;10.70;84.70;;;;;;5094365;28;20025;-78
2021/11/21 11:56:52;;;;;;;3.05;1.00;;;10.80;85.00;;;;;;5094177;28;20190;-78
2021/11/21 11:59:36;;;;;;;4.03;1.00;;;10.90;84.70;;;;;;5087724;28;20032;-77
2021/11/21 12:02:07;;;;;;;;;;;11.00;83.90;;;;;;5094701;28;20182;-78
2021/11/21 12:04:33;;;;;;;5.35;1.02;;;11.00;83.80;;;;;;5094250;28;19908;-78
2021/11/21 12:07:02;;;;;;;6.03;1.25;;;11.10;84.00;;;;;;5095542;28;20047;-78
2021/11/21 12:09:31;;;;;;;3.75;1.10;;;11.20;83.30;;;;;;5093664;28;20024;-78
2021/11/21 12:12:11;;;;;;;8.85;1.20;;;11.20;82.90;;;;;;5093698;28;20035;-78
2021/11/21 12:14:39;;;;;;;7.70;1.00;;;11.30;82.90;;;;;;5095230;28;20028;-78
2021/11/21 12:17:12;;;;;;;4.38;0.80;;;11.40;82.60;;;;;;5093888;28;20025;-80
2021/11/21 12:20:31;;;;;;;5.35;1.10;;;11.40;82.20;;;;;;5095422;28;20123;-80
2021/11/21 12:22:57;;;;;;;4.25;0.90;;;11.40;82.30;;;;;;5093866;28;20024;-79
2021/11/21 12:25:23;;;;;;;2.72;0.75;;;11.30;82.90;;;;;;5093955;28;20024;-78
2021/11/21 12:27:57;;;;;;;4.90;1.00;;;11.30;82.10;;;;;;5093748;28;20028;-78
2021/11/21 12:30:26;;;;;;;5.45;1.23;;;11.20;82.00;;;;;;5093801;28;20028;-79
2021/11/21 12:32:58;;;;;;;4.30;1.17;;;11.30;81.90;;;;;;5093938;28;20439;-78
2021/11/21 12:35:29;;;;;;;4.53;1.00;;;11.30;80.60;;;;;;5093915;28;20062;-78
2021/11/21 12:37:57;;;;;;;5.60;0.90;;;11.30;81.10;;;;;;5094216;28;20067;-79
2021/11/21 12:40:25;;;;;;;5.35;1.00;;;11.40;80.60;;;;;;5094998;28;20365;-79
2021/11/21 12:43:11;;;;;;;7.38;0.98;;;11.40;80.00;;;;;;5094034;28;20024;-79
2021/11/21 12:45:39;;;;;;;4.47;0.90;;;11.50;80.30;;;;;;5093888;28;20020;-78
2021/11/21 12:48:07;;;;;;;5.20;1.05;;;11.60;80.30;;;;;;5093594;28;20028;-78
2021/11/21 12:50:50;;;;;;;3.95;1.08;;;11.70;80.10;;;;;;5094990;28;20077;-77
2021/11/21 12:53:21;;;;;;;7.40;1.10;;;11.80;79.60;;;;;;5093844;28;20035;-79
2021/11/21 12:55:49;;;;;;;5.32;1.10;;;11.80;78.70;;;;;;5093299;28;20127;-78